createdAt,value
2023-04-02T00:02:22.141Z,98380.21
2023-04-02T00:07:33.811Z,98379.55
2023-04-02T00:12:36.765Z,98385.11
2023-04-02T00:17:40.232Z,98387.16
2023-04-02T00:22:44.880Z,98396.91
2023-04-02T00:27:48.390Z,98400.83
2023-04-02T00:32:51.880Z,98407.94
2023-04-02T00:37:56.589Z,98410.14
2023-04-02T00:43:01.227Z,98416.82
2023-04-02T00:48:32.891Z,98425.81
2023-04-02T00:53:36.267Z,98430.78
2023-04-02T00:58:40.099Z,98428.89
2023-04-02T01:03:44.034Z,98424.44
2023-04-02T01:09:09.347Z,98428.50
2023-04-02T01:14:43.311Z,98434.70
2023-04-02T01:20:09.119Z,98436.60
2023-04-02T01:25:22.724Z,98437.13
2023-04-02T01:30:26.257Z,98432.63
2023-04-02T01:35:36.409Z,98438.08
2023-04-02T01:41:01.668Z,98439.86
2023-04-02T01:46:44.915Z,98443.05
2023-04-02T01:51:55.172Z,98449.27
2023-04-02T01:56:58.254Z,98450.34
2023-04-02T02:02:12.493Z,98453.70
2023-04-02T02:07:19.547Z,98462.67
2023-04-02T02:12:23.290Z,98465.39
2023-04-02T02:17:34.463Z,98466.15
2023-04-02T02:22:40.643Z,98469.88
2023-04-02T02:28:06.060Z,98469.34
2023-04-02T02:33:34.378Z,98472.34
2023-04-02T02:38:54.411Z,98480.79
2023-04-02T02:44:11.591Z,98492.70
2023-04-02T02:49:24.807Z,98504.11
2023-04-02T02:54:30.702Z,98504.05
2023-04-02T02:59:34.108Z,98511.63
2023-04-02T03:04:38.492Z,98514.82
2023-04-02T03:10:21.143Z,98519.17
2023-04-02T03:16:12.656Z,98524.70
2023-04-02T03:21:25.839Z,98526.70
2023-04-02T03:26:40.859Z,98532.64
2023-04-02T03:32:12.470Z,98533.29
2023-04-02T03:37:28.944Z,98540.71
2023-04-02T03:43:25.460Z,98541.20
2023-04-02T03:48:39.660Z,98553.52
2023-04-02T03:53:44.573Z,98557.30
2023-04-02T03:58:55.430Z,98561.48
2023-04-02T04:04:08.914Z,98562.86
2023-04-02T04:09:19.380Z,98572.23
2023-04-02T04:14:33.245Z,98579.81
2023-04-02T04:19:46.409Z,98592.39
2023-04-02T04:24:49.418Z,98601.00
2023-04-02T04:30:14.851Z,98602.23
2023-04-02T04:35:45.566Z,98604.04
2023-04-02T04:40:54.287Z,98612.97
2023-04-02T04:46:06.236Z,98621.51
2023-04-02T04:51:19.246Z,98624.87
2023-04-02T04:56:28.541Z,98629.21
2023-04-02T05:01:45.675Z,98641.97
2023-04-02T05:07:09.364Z,98655.35
2023-04-02T05:12:42.170Z,98660.84
2023-04-02T05:18:00.343Z,98659.65
2023-04-02T05:23:19.938Z,98668.63
2023-04-02T05:28:36.153Z,98674.85
2023-04-02T05:33:40.262Z,98686.45
2023-04-02T05:38:48.612Z,98694.22
2023-04-02T05:43:58.983Z,98696.16
2023-04-02T05:49:08.803Z,98697.86
2023-04-02T05:54:29.209Z,98700.66
2023-04-02T05:59:49.218Z,98704.04
2023-04-02T06:05:12.136Z,98710.15
2023-04-02T06:10:24.789Z,98713.15
2023-04-02T06:15:28.002Z,98720.31
2023-04-02T06:20:31.077Z,98726.09
2023-04-02T06:25:40.042Z,98730.70
2023-04-02T06:30:43.603Z,98743.67
2023-04-02T06:35:47.832Z,98747.52
2023-04-02T06:41:02.994Z,98749.83
2023-04-02T06:46:43.728Z,98755.47
2023-04-02T06:51:48.546Z,98761.22
2023-04-02T06:56:53.758Z,98768.33
2023-04-02T07:02:06.556Z,98772.26
2023-04-02T07:07:09.559Z,98780.67
2023-04-02T07:12:14.029Z,98781.76
2023-04-02T07:17:18.392Z,98792.38
2023-04-02T07:22:22.274Z,98796.42
2023-04-02T07:27:25.081Z,98802.02
2023-04-02T07:32:28.382Z,98811.69
2023-04-02T07:37:31.930Z,98819.21
2023-04-02T07:42:34.888Z,98831.16
2023-04-02T07:47:37.742Z,98836.35
2023-04-02T07:52:44.498Z,98843.70
2023-04-02T07:57:51.282Z,98855.01
2023-04-02T08:02:54.303Z,98856.87
2023-04-02T08:07:57.400Z,98864.58
2023-04-02T08:13:00.385Z,98869.05
2023-04-02T08:18:03.279Z,98869.30
2023-04-02T08:23:15.458Z,98868.31
2023-04-02T08:28:18.508Z,98879.66
2023-04-02T08:33:21.461Z,98878.31
2023-04-02T08:38:25.454Z,98884.09
2023-04-02T08:43:53.275Z,98903.58
2023-04-02T08:49:01.267Z,98914.30
2023-04-02T08:54:29.404Z,98920.82
2023-04-02T08:59:38.951Z,98930.70
2023-04-02T09:04:42.383Z,98935.91
2023-04-02T09:09:49.995Z,98938.13
2023-04-02T09:15:06.782Z,98943.13
2023-04-02T09:20:21.273Z,98945.46
2023-04-02T09:25:28.279Z,98948.38
2023-04-02T09:31:00.269Z,98952.86
2023-04-02T09:36:03.737Z,98955.36
2023-04-02T09:41:18.686Z,98956.46
2023-04-02T09:46:26.045Z,98971.31
2023-04-02T09:51:35.211Z,98976.51
2023-04-02T09:56:40.096Z,98983.38
2023-04-02T10:02:07.499Z,98986.52
2023-04-02T10:07:41.559Z,99000.74
2023-04-02T10:13:02.500Z,99004.66
2023-04-02T10:18:21.398Z,99008.91
2023-04-02T10:23:29.484Z,99015.34
2023-04-02T10:29:13.310Z,99019.81
2023-04-02T10:34:36.799Z,99028.95
2023-04-02T10:39:46.997Z,99032.02
2023-04-02T10:45:04.839Z,99039.27
2023-04-02T10:50:50.165Z,99049.26
2023-04-02T10:55:58.097Z,99055.63
2023-04-02T11:01:25.974Z,99057.04
2023-04-02T11:06:37.431Z,99065.76
2023-04-02T11:11:44.747Z,99073.05
2023-04-02T11:16:53.267Z,99077.09
2023-04-02T11:22:31.525Z,99080.39
2023-04-02T11:27:34.482Z,99082.83
2023-04-02T11:32:49.364Z,99102.04
2023-04-02T11:37:54.506Z,99112.73
2023-04-02T11:43:32.766Z,99122.25
2023-04-02T11:48:36.912Z,99120.70
2023-04-02T11:53:42.902Z,99129.60
2023-04-02T11:59:38.318Z,99132.77
2023-04-02T12:05:04.972Z,99136.97
2023-04-02T12:10:22.843Z,99142.45
2023-04-02T12:15:49.016Z,99146.63
2023-04-02T12:20:55.986Z,99148.14
2023-04-02T12:26:03.486Z,99154.77
2023-04-02T12:31:09.422Z,99163.21
2023-04-02T12:36:14.245Z,99164.92
2023-04-02T12:41:33.419Z,99176.11
2023-04-02T12:46:36.404Z,99186.42
2023-04-02T12:51:39.546Z,99183.15
2023-04-02T12:56:42.374Z,99189.91
2023-04-02T13:01:57.961Z,99187.98
2023-04-02T13:07:02.134Z,99197.23
2023-04-02T13:12:06.025Z,99206.05
2023-04-02T13:17:51.196Z,99209.98
2023-04-02T13:22:54.198Z,99217.11
2023-04-02T13:27:57.574Z,99222.58
2023-04-02T13:33:00.871Z,99226.22
2023-04-02T13:38:05.725Z,99231.91
2023-04-02T13:43:18.297Z,99242.73
2023-04-02T13:48:24.662Z,99247.44
2023-04-02T13:53:34.062Z,99253.89
2023-04-02T13:58:36.890Z,99259.58
2023-04-02T14:03:40.857Z,99263.66
2023-04-02T14:09:24.903Z,99261.89
2023-04-02T14:15:03.996Z,99265.17
2023-04-02T14:20:40.783Z,99270.83
2023-04-02T14:26:14.390Z,99276.05
2023-04-02T14:31:44.595Z,99280.18
2023-04-02T14:37:04.959Z,99287.96
2023-04-02T14:42:16.712Z,99288.80
2023-04-02T14:47:25.991Z,99297.04
2023-04-02T14:52:33.483Z,99296.75
2023-04-02T14:57:44.768Z,99298.50
2023-04-02T15:02:58.430Z,99298.98
2023-04-02T15:08:35.220Z,99301.06
2023-04-02T15:13:49.937Z,99305.55
2023-04-02T15:18:56.423Z,99308.52
2023-04-02T15:24:37.527Z,99319.15
2023-04-02T15:30:07.608Z,99328.03
2023-04-02T15:35:31.623Z,99329.67
2023-04-02T15:40:49.687Z,99339.05
2023-04-02T15:46:06.395Z,99350.35
2023-04-02T15:51:37.327Z,99350.71
2023-04-02T15:56:52.736Z,99363.73
2023-04-02T16:02:02.497Z,99375.43
2023-04-02T16:07:57.472Z,99380.55
2023-04-02T16:13:00.633Z,99383.05
2023-04-02T16:18:12.502Z,99393.72
2023-04-02T16:23:21.083Z,99398.80
2023-04-02T16:28:31.191Z,99404.22
2023-04-02T16:34:02.539Z,99411.31
2023-04-02T16:39:36.004Z,99412.44
2023-04-02T16:45:12.595Z,99416.27
2023-04-02T16:50:47.436Z,99424.63
2023-04-02T16:56:40.887Z,99428.27
2023-04-02T17:02:03.180Z,99441.13
2023-04-02T17:08:01.837Z,99451.36
2023-04-02T17:13:37.568Z,99457.96
2023-04-02T17:18:43.519Z,99461.52
2023-04-02T17:24:00.521Z,99471.49
2023-04-02T17:29:09.436Z,99479.17
2023-04-02T17:34:15.747Z,99486.84
2023-04-02T17:39:43.545Z,99499.77
2023-04-02T17:45:03.597Z,99507.80
2023-04-02T17:50:12.440Z,99509.23
2023-04-02T17:55:47.755Z,99510.72
2023-04-02T18:00:58.100Z,99518.07
2023-04-02T18:06:09.416Z,99529.27
2023-04-02T18:11:43.507Z,99537.98
2023-04-02T18:17:12.633Z,99547.70
2023-04-02T18:22:49.564Z,99555.63
2023-04-02T18:28:14.939Z,99559.61
2023-04-02T18:33:43.256Z,99567.16
2023-04-02T18:39:21.584Z,99569.02
2023-04-02T18:44:31.332Z,99575.65
2023-04-02T18:49:48.497Z,99588.15
2023-04-02T18:55:07.310Z,99587.25
2023-04-02T19:00:45.110Z,99595.88
2023-04-02T19:06:05.630Z,99598.21
2023-04-02T19:11:28.416Z,99598.68
2023-04-02T19:16:43.098Z,99598.69
2023-04-02T19:21:51.625Z,99603.65
2023-04-02T19:27:08.172Z,99606.16
2023-04-02T19:32:36.813Z,99609.65
2023-04-02T19:38:03.010Z,99613.64
2023-04-02T19:43:09.646Z,99616.30
2023-04-02T19:48:26.322Z,99621.79
2023-04-02T19:53:29.155Z,99628.80
2023-04-02T19:58:36.059Z,99629.00
2023-04-02T20:03:38.956Z,99637.73
2023-04-02T20:08:41.982Z,99640.01
2023-04-02T20:13:44.837Z,99639.48
2023-04-02T20:18:48.440Z,99647.94
2023-04-02T20:23:55.473Z,99650.39
2023-04-02T20:28:58.782Z,99655.88
2023-04-02T20:34:03.861Z,99659.41
2023-04-02T20:39:09.174Z,99668.40
2023-04-02T20:44:13.030Z,99676.25
2023-04-02T20:49:15.865Z,99677.64
2023-04-02T20:54:18.734Z,99692.14
2023-04-02T20:59:21.570Z,99690.41
2023-04-02T21:04:24.619Z,99697.09
2023-04-02T21:09:27.485Z,99699.27
2023-04-02T21:14:35.769Z,99695.86
2023-04-02T21:19:38.601Z,99705.20
2023-04-02T21:24:41.426Z,99706.86
2023-04-02T21:29:44.246Z,99707.73
2023-04-02T21:34:47.082Z,99705.84
2023-04-02T21:39:49.970Z,99707.67
2023-04-02T21:44:53.374Z,99716.95
2023-04-02T21:49:56.178Z,99721.92
2023-04-02T21:54:59.014Z,99723.48
2023-04-02T22:00:01.841Z,99722.00
2023-04-02T22:05:05.599Z,99731.48
2023-04-02T22:10:08.805Z,99733.46
2023-04-02T22:15:11.947Z,99739.07
2023-04-02T22:20:15.275Z,99736.54
2023-04-02T22:25:18.182Z,99740.05
2023-04-02T22:30:20.987Z,99739.33
2023-04-02T22:35:23.963Z,99741.88
2023-04-02T22:40:27.071Z,99747.78
2023-04-02T22:45:29.922Z,99757.56
2023-04-02T22:50:32.862Z,99757.83
2023-04-02T22:55:35.973Z,99760.92
2023-04-02T23:00:39.370Z,99762.11
2023-04-02T23:05:42.681Z,99766.88
2023-04-02T23:10:45.499Z,99768.53
2023-04-02T23:15:48.380Z,99769.00
2023-04-02T23:20:51.210Z,99771.45
2023-04-02T23:26:13.775Z,99770.41
2023-04-02T23:31:20.544Z,99771.28
2023-04-02T23:36:30.443Z,99775.05
2023-04-02T23:41:33.291Z,99774.96
2023-04-02T23:46:36.884Z,99777.27
2023-04-02T23:51:40.728Z,99779.95
2023-04-02T23:56:43.627Z,99781.63
